Portada
METAR-TAF:

METAR-TAF

Aeroports :

Port Harcourt, Nigèria

latitud: 04-51N, longitud: 007-01E, altitud: 18 m

Observació

L'informe es va fer fa 1 hora i 56 minuts, a les 03:00 UTC
Vent calma
Temperatura 22°C
Humitat 88%
Pressió 1010 hPa
Visibilitat: 2000 m
Núvols disperses a una alçada de 700 ft
calitja

METAR: DNPO 210300Z 00000KT 2000 HZ SCT007 22/20 Q1010 TEMPO 1500

Hora: 05:56 (04:56 UTC)

Pronòstic

L'informe es va fer fa 23 hores i 56 minuts, a les 05:00 UTC
Pronòstic vàlid del 19 a les 06 UTC al 20 a les 12 UTC
Vent 10 kt del Oest
Visibilitat: 7000 m
Cel ennuvolat a una alçada de 600 ft
Cel ennuvolat a una alçada de 1100 ft
boirina
Evolucionant progressivament
l' 19 a les 17 UTC al 19 a les 19 UTC
Vent 2 kt amb direcció variable
Núvols disperses a una alçada de 900 ft

TAF: DNPO 190500Z 1906/2012 00000KT 3000 BR BKN006 BECNG 1908/1910 26010KT 7000 NSW BKN011 BECMG 1917/1919 VRB02KT SCT009

Observacions i pronòstics meteorològics de més de 4000 aeroports (METAR i TAF).

Les estacions disponibles són els punts grocs i vermells al mapa.

Posi el ratolí al punt desitjat per veure el nom de l'estació.

Feu clic per veure les observacions i els pronòstics meteorològics.

Per canviar el mapa: feu clic els botons verds amb una creu de color negre per apropar; al botó verd amb un guió per allunyar la imatge; o en les fletxes verdes per a mapes adjacents.


METAR-TAF: